Back to Top

Language: 

My Weather Underground Personal Weather Station Historical Data with Graphs...

Delerius Weather Station Historical Data
Daily Summary for February 1, 2018 Units:  Metric    English   Both
« Previous Day
Next Day »
Daily Weekly Monthly Yearly Custom
  High: Low: Average:
Temperature: 7.1 °C 1.9 °C 4.2 °C
Dew Point: 2.6 °C -0.3 °C 0.9 °C
Humidity: 91 % 69 % 80 %
Wind Speed: 32.2 km/h 4.8 km/h 18.2 km/h
Wind Gust: 49.9 km/h - -
Wind:- - WNW
Pressure: 1007.3 hPa 994.5 hPa -
Precipitation: 0 mm    
Historical Graphs
 
 
Tabular Data for February 1, 2018
Time Temperature Dew Point Pressure Wind Wind Speed Wind Gust Humidity Rainfall Rate (Hourly) solar Conditions
00:01 2.4 °C 0.8 °C 994.5 hPa WNW 11.3 km/h 16.1 km/h 89 % 0 mm 0 W/m2
00:07 2.3 °C 0.7 °C 994.5 hPa WNW 14.5 km/h 24.1 km/h 89 % 0 mm 0 W/m2
00:12 2.2 °C 0.6 °C 994.5 hPa WNW 12.9 km/h 19.3 km/h 89 % 0 mm 0 W/m2
00:17 2.1 °C 0.5 °C 994.5 hPa West 17.7 km/h 29 km/h 89 % 0 mm 0 W/m2
00:22 2.1 °C 0.6 °C 994.5 hPa WNW 16.1 km/h 22.5 km/h 90 % 0 mm 0 W/m2
00:27 2.1 °C 0.6 °C 994.5 hPa WNW 14.5 km/h 19.3 km/h 90 % 0 mm 0 W/m2
00:32 2.1 °C 0.6 °C 994.8 hPa WNW 12.9 km/h 17.7 km/h 90 % 0 mm 0 W/m2
00:37 2.2 °C 0.7 °C 994.8 hPa WNW 11.3 km/h 16.1 km/h 90 % 0 mm 0 W/m2
00:42 2.2 °C 0.7 °C 994.8 hPa WNW 14.5 km/h 20.9 km/h 90 % 0 mm 0 W/m2
00:47 2.3 °C 0.8 °C 995.1 hPa WNW 11.3 km/h 16.1 km/h 90 % 0 mm 0 W/m2
00:52 2.4 °C 1.1 °C 995.1 hPa WNW 12.9 km/h 22.5 km/h 91 % 0 mm 0 W/m2
00:57 2.6 °C 1.3 °C 995.1 hPa WNW 14.5 km/h 22.5 km/h 91 % 0 mm 0 W/m2
01:02 2.7 °C 1.4 °C 995.1 hPa WNW 16.1 km/h 25.7 km/h 91 % 0 mm 0 W/m2
01:07 2.8 °C 1.5 °C 995.5 hPa WNW 19.3 km/h 29 km/h 91 % 0 mm 0 W/m2
01:12 2.8 °C 1.3 °C 995.5 hPa WNW 14.5 km/h 22.5 km/h 90 % 0 mm 0 W/m2
01:17 2.8 °C 1.3 °C 995.5 hPa WNW 17.7 km/h 25.7 km/h 90 % 0 mm 0 W/m2
01:22 2.8 °C 1.3 °C 995.5 hPa WNW 16.1 km/h 25.7 km/h 90 % 0 mm 0 W/m2
01:27 2.8 °C 1.3 °C 995.5 hPa WNW 16.1 km/h 25.7 km/h 90 % 0 mm 0 W/m2
01:32 2.7 °C 1.2 °C 995.8 hPa NW 12.9 km/h 22.5 km/h 90 % 0 mm 0 W/m2
01:37 2.7 °C 1.2 °C 995.5 hPa WNW 14.5 km/h 30.6 km/h 90 % 0 mm 0 W/m2
01:42 2.7 °C 1.2 °C 995.8 hPa WNW 17.7 km/h 25.7 km/h 90 % 0 mm 0 W/m2
01:47 2.7 °C 1.2 °C 995.8 hPa WNW 16.1 km/h 24.1 km/h 90 % 0 mm 0 W/m2
01:52 2.7 °C 1.2 °C 995.8 hPa NW 14.5 km/h 22.5 km/h 90 % 0 mm 0 W/m2
01:57 2.6 °C 1.1 °C 996.2 hPa WNW 14.5 km/h 20.9 km/h 90 % 0 mm 0 W/m2
02:02 2.6 °C 0.9 °C 996.2 hPa WNW 14.5 km/h 24.1 km/h 89 % 0 mm 0 W/m2
02:07 2.6 °C 0.9 °C 996.5 hPa WNW 16.1 km/h 25.7 km/h 89 % 0 mm 0 W/m2
02:12 2.7 °C 1.1 °C 996.5 hPa WNW 14.5 km/h 24.1 km/h 89 % 0 mm 0 W/m2
02:17 2.7 °C 1.1 °C 996.5 hPa NW 9.7 km/h 14.5 km/h 89 % 0 mm 0 W/m2
02:22 2.7 °C 1.1 °C 996.5 hPa WNW 11.3 km/h 19.3 km/h 89 % 0 mm 0 W/m2
02:27 2.6 °C 0.9 °C 996.5 hPa WNW 9.7 km/h 19.3 km/h 89 % 0 mm 0 W/m2
02:32 2.6 °C 0.9 °C 996.5 hPa WNW 11.3 km/h 19.3 km/h 89 % 0 mm 0 W/m2
02:37 2.5 °C 0.9 °C 996.5 hPa WNW 9.7 km/h 12.9 km/h 89 % 0 mm 0 W/m2
02:42 2.4 °C 0.8 °C 996.5 hPa WNW 6.4 km/h 11.3 km/h 89 % 0 mm 0 W/m2
02:47 2.3 °C 0.7 °C 996.5 hPa WNW 8 km/h 12.9 km/h 89 % 0 mm 0 W/m2
02:52 2.2 °C 0.6 °C 996.5 hPa West 9.7 km/h 16.1 km/h 89 % 0 mm 0 W/m2
02:57 2.2 °C 0.6 °C 996.5 hPa WNW 8 km/h 12.9 km/h 89 % 0 mm 0 W/m2
03:02 2.1 °C 0.5 °C 996.5 hPa WNW 9.7 km/h 16.1 km/h 89 % 0 mm 0 W/m2
03:07 2.1 °C 0.5 °C 996.5 hPa WNW 4.8 km/h 9.7 km/h 89 % 0 mm 0 W/m2
03:12 2 °C 0.4 °C 996.5 hPa NW 6.4 km/h 11.3 km/h 89 % 0 mm 0 W/m2
03:17 1.9 °C 0.3 °C 996.5 hPa NW 9.7 km/h 16.1 km/h 89 % 0 mm 0 W/m2
03:22 1.9 °C 0.3 °C 996.5 hPa NW 12.9 km/h 29 km/h 89 % 0 mm 0 W/m2
03:27 2.1 °C 0.3 °C 996.5 hPa WNW 16.1 km/h 22.5 km/h 88 % 0 mm 0 W/m2
03:32 2.1 °C 0.3 °C 996.5 hPa WNW 16.1 km/h 22.5 km/h 88 % 0 mm 0 W/m2
03:37 2.2 °C 0.3 °C 996.5 hPa WNW 17.7 km/h 29 km/h 87 % 0 mm 0 W/m2
03:43 2.3 °C 0.3 °C 996.2 hPa WNW 17.7 km/h 29 km/h 87 % 0 mm 0 W/m2
03:48 2.4 °C 0.4 °C 996.2 hPa WNW 20.9 km/h 32.2 km/h 87 % 0 mm 0 W/m2
03:53 2.5 °C 0.6 °C 996.2 hPa WNW 20.9 km/h 37 km/h 87 % 0 mm 0 W/m2
03:58 2.6 °C 0.7 °C 996.5 hPa WNW 22.5 km/h 38.6 km/h 87 % 0 mm 0 W/m2
04:03 2.7 °C 0.8 °C 996.5 hPa WNW 20.9 km/h 35.4 km/h 87 % 0 mm 0 W/m2
04:08 2.7 °C 0.8 °C 996.5 hPa WNW 20.9 km/h 33.8 km/h 87 % 0 mm 0 W/m2
04:13 2.7 °C 0.8 °C 996.8 hPa WNW 22.5 km/h 40.2 km/h 87 % 0 mm 0 W/m2
04:18 2.7 °C 0.8 °C 996.8 hPa WNW 19.3 km/h 29 km/h 87 % 0 mm 0 W/m2
04:23 2.7 °C 0.8 °C 996.8 hPa WNW 20.9 km/h 33.8 km/h 87 % 0 mm 0 W/m2
04:28 2.7 °C 0.8 °C 997.2 hPa WNW 20.9 km/h 33.8 km/h 87 % 0 mm 0 W/m2
04:33 2.7 °C 0.8 °C 997.2 hPa WNW 17.7 km/h 22.5 km/h 87 % 0 mm 0 W/m2
04:38 2.8 °C 0.7 °C 997.5 hPa WNW 16.1 km/h 29 km/h 86 % 0 mm 0 W/m2
04:43 2.8 °C 0.7 °C 997.5 hPa WNW 19.3 km/h 32.2 km/h 86 % 0 mm 0 W/m2
04:48 2.8 °C 0.7 °C 997.5 hPa WNW 16.1 km/h 25.7 km/h 86 % 0 mm 0 W/m2
04:53 2.8 °C 0.8 °C 997.5 hPa WNW 14.5 km/h 22.5 km/h 87 % 0 mm 0 W/m2
04:58 2.8 °C 0.8 °C 997.5 hPa WNW 16.1 km/h 29 km/h 87 % 0 mm 0 W/m2
05:03 2.8 °C 0.8 °C 997.5 hPa WNW 16.1 km/h 22.5 km/h 87 % 0 mm 0 W/m2
05:08 2.8 °C 0.8 °C 997.5 hPa WNW 19.3 km/h 29 km/h 87 % 0 mm 0 W/m2
05:13 2.8 °C 0.8 °C 997.5 hPa WNW 17.7 km/h 30.6 km/h 87 % 0 mm 0 W/m2
05:18 2.8 °C 0.8 °C 997.5 hPa WNW 19.3 km/h 33.8 km/h 87 % 0 mm 0 W/m2
05:23 2.9 °C 0.9 °C 997.5 hPa WNW 17.7 km/h 24.1 km/h 87 % 0 mm 0 W/m2
05:28 2.9 °C 0.9 °C 997.9 hPa WNW 16.1 km/h 29 km/h 87 % 0 mm 0 W/m2
05:33 2.8 °C 0.8 °C 997.9 hPa WNW 17.7 km/h 29 km/h 87 % 0 mm 0 W/m2
05:38 2.8 °C 0.8 °C 997.9 hPa WNW 17.7 km/h 30.6 km/h 87 % 0 mm 0 W/m2
05:43 2.8 °C 0.8 °C 997.9 hPa WNW 16.1 km/h 25.7 km/h 87 % 0 mm 0 W/m2
05:48 2.8 °C 0.8 °C 997.9 hPa WNW 19.3 km/h 30.6 km/h 87 % 0 mm 0 W/m2
05:54 2.8 °C 0.8 °C 998.2 hPa WNW 16.1 km/h 24.1 km/h 87 % 0 mm 0 W/m2
05:59 2.8 °C 0.8 °C 997.9 hPa WNW 19.3 km/h 33.8 km/h 87 % 0 mm 0 W/m2
06:04 2.8 °C 0.8 °C 997.9 hPa WNW 19.3 km/h 30.6 km/h 87 % 0 mm 0 W/m2
06:09 2.8 °C 0.8 °C 998.2 hPa WNW 19.3 km/h 30.6 km/h 87 % 0 mm 0 W/m2
06:14 2.8 °C 0.8 °C 998.2 hPa WNW 19.3 km/h 30.6 km/h 87 % 0 mm 0 W/m2
06:19 2.8 °C 0.8 °C 998.2 hPa WNW 17.7 km/h 29 km/h 87 % 0 mm 0 W/m2
06:24 2.8 °C 0.8 °C 998.2 hPa WNW 17.7 km/h 25.7 km/h 87 % 0 mm 0 W/m2
06:29 2.8 °C 0.8 °C 998.5 hPa WNW 19.3 km/h 35.4 km/h 87 % 0 mm 0 W/m2
06:34 2.9 °C 0.9 °C 998.2 hPa WNW 16.1 km/h 30.6 km/h 87 % 0 mm 0 W/m2
06:39 2.9 °C 0.9 °C 998.2 hPa WNW 17.7 km/h 30.6 km/h 87 % 0 mm 0 W/m2
06:44 2.9 °C 0.9 °C 998.5 hPa WNW 19.3 km/h 25.7 km/h 87 % 0 mm 0 W/m2
06:49 2.9 °C 0.9 °C 998.5 hPa WNW 17.7 km/h 33.8 km/h 87 % 0 mm 0 W/m2
06:54 3 °C 1.1 °C 998.5 hPa WNW 19.3 km/h 29 km/h 87 % 0 mm 0 W/m2
06:59 3 °C 1.1 °C 998.5 hPa WNW 17.7 km/h 32.2 km/h 87 % 0 mm 0 W/m2
07:04 3 °C 1.1 °C 998.9 hPa WNW 24.1 km/h 41.8 km/h 87 % 0 mm 0 W/m2
07:09 3.1 °C 1.2 °C 998.5 hPa WNW 22.5 km/h 35.4 km/h 87 % 0 mm 0 W/m2
07:14 3.1 °C 1.2 °C 998.5 hPa WNW 22.5 km/h 37 km/h 87 % 0 mm 0 W/m2
07:19 3.1 °C 1.2 °C 998.5 hPa WNW 20.9 km/h 35.4 km/h 87 % 0 mm 0 W/m2
07:24 3 °C 1.1 °C 998.9 hPa WNW 16.1 km/h 25.7 km/h 87 % 0 mm 0 W/m2
07:29 2.9 °C 0.9 °C 998.9 hPa WNW 16.1 km/h 29 km/h 87 % 0 mm 0 W/m2
07:34 2.9 °C 0.9 °C 998.9 hPa WNW 17.7 km/h 29 km/h 87 % 0 mm 0 W/m2
07:39 2.9 °C 0.9 °C 998.9 hPa WNW 19.3 km/h 25.7 km/h 87 % 0 mm 0 W/m2
07:44 2.9 °C 0.9 °C 999.2 hPa WNW 17.7 km/h 25.7 km/h 87 % 0 mm 0 W/m2
07:49 2.9 °C 0.9 °C 999.2 hPa WNW 17.7 km/h 29 km/h 87 % 0 mm 5 W/m2
07:54 2.9 °C 0.9 °C 999.2 hPa WNW 19.3 km/h 30.6 km/h 87 % 0 mm 7 W/m2
07:59 2.9 °C 0.9 °C 999.5 hPa WNW 17.7 km/h 29 km/h 87 % 0 mm 9 W/m2
08:04 2.9 °C 0.9 °C 999.5 hPa WNW 20.9 km/h 30.6 km/h 87 % 0 mm 12 W/m2
08:09 2.9 °C 0.8 °C 999.9 hPa WNW 19.3 km/h 30.6 km/h 86 % 0 mm 14 W/m2
08:14 2.9 °C 0.8 °C 999.9 hPa WNW 14.5 km/h 29 km/h 86 % 0 mm 16 W/m2
08:19 2.9 °C 0.8 °C 999.9 hPa WNW 11.3 km/h 20.9 km/h 86 % 0 mm 18 W/m2
08:24 2.9 °C 0.8 °C 999.9 hPa WNW 17.7 km/h 30.6 km/h 86 % 0 mm 21 W/m2
08:29 2.9 °C 0.6 °C 999.9 hPa West 17.7 km/h 29 km/h 85 % 0 mm 21 W/m2
08:34 2.9 °C 0.6 °C 999.9 hPa West 19.3 km/h 30.6 km/h 85 % 0 mm 25 W/m2
08:40 3 °C 0.7 °C 999.9 hPa WNW 20.9 km/h 30.6 km/h 85 % 0 mm 25 W/m2
08:45 3.1 °C 0.7 °C 999.9 hPa WNW 19.3 km/h 30.6 km/h 84 % 0 mm 26 W/m2
08:50 3.1 °C 0.8 °C 999.9 hPa WNW 19.3 km/h 32.2 km/h 85 % 0 mm 30 W/m2
08:55 3.1 °C 0.8 °C 1000.2 hPa WNW 17.7 km/h 25.7 km/h 85 % 0 mm 33 W/m2
09:00 3.2 °C 0.9 °C 999.9 hPa WNW 16.1 km/h 24.1 km/h 85 % 0 mm 42 W/m2
09:05 3.3 °C 1 °C 999.9 hPa WNW 20.9 km/h 33.8 km/h 85 % 0 mm 53 W/m2
09:10 3.3 °C 1 °C 999.9 hPa WNW 19.3 km/h 33.8 km/h 85 % 0 mm 47 W/m2
09:15 3.4 °C 0.9 °C 999.9 hPa WNW 22.5 km/h 35.4 km/h 84 % 0 mm 47 W/m2
09:20 3.6 °C 1.2 °C 999.9 hPa WNW 17.7 km/h 30.6 km/h 84 % 0 mm 141 W/m2
09:25 3.7 °C 1.2 °C 999.9 hPa WNW 19.3 km/h 32.2 km/h 84 % 0 mm 193 W/m2
09:30 3.8 °C 1.3 °C 999.9 hPa WNW 20.9 km/h 38.6 km/h 84 % 0 mm 178 W/m2
09:35 3.9 °C 1.4 °C 999.9 hPa WNW 24.1 km/h 37 km/h 84 % 0 mm 211 W/m2
09:40 4.1 °C 1.6 °C 999.9 hPa WNW 24.1 km/h 38.6 km/h 84 % 0 mm 148 W/m2
09:45 4.2 °C 1.6 °C 1000.2 hPa WNW 29 km/h 43.5 km/h 83 % 0 mm 220 W/m2
09:50 4.3 °C 1.7 °C 1000.2 hPa WNW 24.1 km/h 35.4 km/h 83 % 0 mm 95 W/m2
09:55 4.3 °C 1.5 °C 1000.2 hPa WNW 25.7 km/h 38.6 km/h 82 % 0 mm 69 W/m2
10:00 4.3 °C 1.7 °C 1000.2 hPa WNW 27.4 km/h 38.6 km/h 83 % 0 mm 236 W/m2
10:05 4.5 °C 1.7 °C 1000.2 hPa WNW 19.3 km/h 35.4 km/h 82 % 0 mm 244 W/m2
10:10 4.7 °C 1.9 °C 1000.6 hPa WNW 20.9 km/h 30.6 km/h 82 % 0 mm 257 W/m2
10:15 4.8 °C 1.8 °C 1000.6 hPa WNW 22.5 km/h 33.8 km/h 81 % 0 mm 262 W/m2
10:20 4.9 °C 1.9 °C 1000.6 hPa WNW 24.1 km/h 40.2 km/h 81 % 0 mm 271 W/m2
10:25 4.9 °C 1.9 °C 1000.2 hPa WNW 24.1 km/h 43.5 km/h 81 % 0 mm 276 W/m2
10:30 5.1 °C 2.1 °C 1000.6 hPa WNW 20.9 km/h 38.6 km/h 81 % 0 mm 290 W/m2
10:35 5.1 °C 1.9 °C 1000.2 hPa WNW 22.5 km/h 38.6 km/h 80 % 0 mm 304 W/m2
10:40 5.2 °C 2.1 °C 1000.2 hPa WNW 24.1 km/h 38.6 km/h 80 % 0 mm 306 W/m2
10:46 5.2 °C 2.1 °C 1000.6 hPa WNW 25.7 km/h 40.2 km/h 80 % 0 mm 311 W/m2
10:51 5.3 °C 2.1 °C 1000.6 hPa WNW 19.3 km/h 30.6 km/h 80 % 0 mm 313 W/m2
10:56 5.3 °C 1.9 °C 1000.6 hPa WNW 24.1 km/h 37 km/h 79 % 0 mm 316 W/m2
11:01 5.4 °C 2.1 °C 1000.6 hPa WNW 22.5 km/h 37 km/h 79 % 0 mm 323 W/m2
11:06 5.5 °C 2.2 °C 1000.6 hPa WNW 25.7 km/h 37 km/h 79 % 0 mm 329 W/m2
11:11 5.6 °C 2.1 °C 1000.6 hPa WNW 24.1 km/h 41.8 km/h 78 % 0 mm 332 W/m2
11:16 5.7 °C 2.2 °C 1000.6 hPa WNW 20.9 km/h 32.2 km/h 78 % 0 mm 336 W/m2
11:21 5.8 °C 2.3 °C 1000.6 hPa WNW 22.5 km/h 37 km/h 78 % 0 mm 343 W/m2
11:26 5.8 °C 2.1 °C 1000.6 hPa WNW 22.5 km/h 35.4 km/h 77 % 0 mm 348 W/m2
11:31 5.9 °C 2.2 °C 1000.6 hPa WNW 24.1 km/h 35.4 km/h 77 % 0 mm 352 W/m2
11:36 5.9 °C 2.2 °C 1000.6 hPa WNW 27.4 km/h 43.5 km/h 77 % 0 mm 360 W/m2
11:41 6 °C 2.3 °C 1000.6 hPa WNW 25.7 km/h 38.6 km/h 77 % 0 mm 355 W/m2
11:46 6.1 °C 2.4 °C 1000.6 hPa WNW 20.9 km/h 32.2 km/h 77 % 0 mm 360 W/m2
11:51 6.1 °C 2.2 °C 1000.6 hPa NW 24.1 km/h 45.1 km/h 76 % 0 mm 362 W/m2
11:56 6.1 °C 2 °C 1000.9 hPa WNW 25.7 km/h 41.8 km/h 75 % 0 mm 367 W/m2
12:01 6.2 °C 2.1 °C 1000.9 hPa WNW 32.2 km/h 49.9 km/h 75 % 0 mm 369 W/m2
12:06 6.2 °C 2.1 °C 1000.9 hPa WNW 25.7 km/h 43.5 km/h 75 % 0 mm 373 W/m2
12:11 6.3 °C 2.2 °C 1000.9 hPa WNW 25.7 km/h 38.6 km/h 75 % 0 mm 371 W/m2
12:16 6.4 °C 2.1 °C 1000.9 hPa WNW 25.7 km/h 38.6 km/h 74 % 0 mm 380 W/m2
12:21 6.4 °C 2.1 °C 1001.2 hPa WNW 30.6 km/h 40.2 km/h 74 % 0 mm 376 W/m2
12:26 6.5 °C 2 °C 1001.2 hPa WNW 29 km/h 48.3 km/h 73 % 0 mm 396 W/m2
12:31 6.6 °C 2.1 °C 1001.2 hPa WNW 27.4 km/h 45.1 km/h 73 % 0 mm 404 W/m2
12:36 6.7 °C 2 °C 1001.2 hPa WNW 32.2 km/h 43.5 km/h 72 % 0 mm 462 W/m2
12:41 6.9 °C 2.4 °C 1001.2 hPa WNW 25.7 km/h 40.2 km/h 73 % 0 mm 582 W/m2
12:46 7.1 °C 2.4 °C 1001.2 hPa WNW 27.4 km/h 40.2 km/h 72 % 0 mm 272 W/m2
12:51 7 °C 2.1 °C 1001.2 hPa WNW 30.6 km/h 43.5 km/h 71 % 0 mm 236 W/m2
12:56 6.8 °C 2.1 °C 1001.2 hPa WNW 25.7 km/h 40.2 km/h 72 % 0 mm 258 W/m2
13:01 6.8 °C 2.3 °C 1001.2 hPa WNW 29 km/h 40.2 km/h 73 % 0 mm 515 W/m2
13:06 7.1 °C 2.6 °C 1001.2 hPa WNW 25.7 km/h 43.5 km/h 73 % 0 mm 369 W/m2
13:11 7.1 °C 2.4 °C 1001.2 hPa WNW 25.7 km/h 38.6 km/h 72 % 0 mm 346 W/m2
13:16 7 °C 2.1 °C 1001.2 hPa WNW 27.4 km/h 41.8 km/h 71 % 0 mm 202 W/m2
13:21 6.9 °C 2.4 °C 1001.2 hPa WNW 20.9 km/h 32.2 km/h 73 % 0 mm 190 W/m2
13:27 6.8 °C 2.3 °C 1001.6 hPa WNW 20.9 km/h 35.4 km/h 73 % 0 mm 188 W/m2
13:32 6.7 °C 2.2 °C 1001.6 hPa WNW 22.5 km/h 38.6 km/h 73 % 0 mm 121 W/m2
13:37 6.6 °C 2.1 °C 1001.6 hPa WNW 20.9 km/h 35.4 km/h 73 % 0 mm 83 W/m2
13:42 6.5 °C 2.2 °C 1001.6 hPa WNW 19.3 km/h 32.2 km/h 74 % 0 mm 83 W/m2
13:47 6.4 °C 2.1 °C 1001.6 hPa WNW 17.7 km/h 24.1 km/h 74 % 0 mm 86 W/m2
13:52 6.3 °C 2 °C 1001.6 hPa NW 25.7 km/h 38.6 km/h 74 % 0 mm 70 W/m2
13:57 6.2 °C 2.1 °C 1001.9 hPa WNW 24.1 km/h 37 km/h 75 % 0 mm 51 W/m2
14:02 6.1 °C 2.2 °C 1001.9 hPa NW 17.7 km/h 30.6 km/h 76 % 0 mm 46 W/m2
14:07 5.9 °C 2.3 °C 1001.9 hPa WNW 16.1 km/h 25.7 km/h 78 % 0 mm 42 W/m2
14:12 5.8 °C 2.3 °C 1001.9 hPa WNW 19.3 km/h 29 km/h 78 % 0 mm 44 W/m2
14:17 5.8 °C 2.3 °C 1001.9 hPa WNW 16.1 km/h 29 km/h 78 % 0 mm 54 W/m2
14:22 5.8 °C 2.3 °C 1001.9 hPa WNW 16.1 km/h 22.5 km/h 78 % 0 mm 53 W/m2
14:27 5.8 °C 2.3 °C 1001.9 hPa WNW 12.9 km/h 25.7 km/h 78 % 0 mm 51 W/m2
14:32 5.8 °C 2.3 °C 1002.3 hPa WNW 16.1 km/h 32.2 km/h 78 % 0 mm 49 W/m2
14:37 5.9 °C 2.2 °C 1002.3 hPa WNW 17.7 km/h 35.4 km/h 77 % 0 mm 44 W/m2
14:42 5.9 °C 2.2 °C 1002.3 hPa NW 14.5 km/h 22.5 km/h 77 % 0 mm 46 W/m2
14:47 5.9 °C 2 °C 1002.3 hPa NW 16.1 km/h 25.7 km/h 76 % 0 mm 28 W/m2
14:52 6 °C 1.7 °C 1002.3 hPa NW 25.7 km/h 40.2 km/h 74 % 0 mm 30 W/m2
14:57 6.1 °C 1.8 °C 1002.6 hPa WNW 16.1 km/h 32.2 km/h 74 % 0 mm 32 W/m2
15:02 6.1 °C 1.6 °C 1002.6 hPa NW 22.5 km/h 38.6 km/h 73 % 0 mm 42 W/m2
15:07 6.1 °C 1.6 °C 1002.6 hPa WNW 16.1 km/h 24.1 km/h 73 % 0 mm 49 W/m2
15:12 6.1 °C 1.4 °C 1002.9 hPa NW 24.1 km/h 37 km/h 72 % 0 mm 51 W/m2
15:17 6.2 °C 1.5 °C 1002.9 hPa NW 17.7 km/h 30.6 km/h 72 % 0 mm 44 W/m2
15:22 6.2 °C 1.3 °C 1002.9 hPa NW 17.7 km/h 32.2 km/h 71 % 0 mm 39 W/m2
15:27 6.2 °C 1.3 °C 1002.9 hPa WNW 22.5 km/h 40.2 km/h 71 % 0 mm 37 W/m2
15:32 6.2 °C 1.3 °C 1002.9 hPa WNW 20.9 km/h 35.4 km/h 71 % 0 mm 39 W/m2
15:37 6.2 °C 1.3 °C 1002.9 hPa NW 14.5 km/h 29 km/h 71 % 0 mm 30 W/m2
15:42 6.2 °C 1.3 °C 1003.3 hPa WNW 22.5 km/h 33.8 km/h 71 % 0 mm 28 W/m2
15:47 6.2 °C 1.3 °C 1003.3 hPa WNW 20.9 km/h 33.8 km/h 71 % 0 mm 28 W/m2
15:52 6.2 °C 1.3 °C 1003.3 hPa WNW 16.1 km/h 25.7 km/h 71 % 0 mm 25 W/m2
15:57 6.1 °C 1.2 °C 1003.3 hPa WNW 17.7 km/h 32.2 km/h 71 % 0 mm 32 W/m2
16:02 6.1 °C 1.2 °C 1003.3 hPa NW 14.5 km/h 22.5 km/h 71 % 0 mm 26 W/m2
16:07 6.1 °C 1.1 °C 1003.6 hPa NW 16.1 km/h 32.2 km/h 70 % 0 mm 28 W/m2
16:12 6.1 °C 1.1 °C 1003.6 hPa NW 17.7 km/h 25.7 km/h 70 % 0 mm 26 W/m2
16:17 6.1 °C 1.1 °C 1003.6 hPa NW 14.5 km/h 30.6 km/h 70 % 0 mm 25 W/m2
16:22 6 °C 0.9 °C 1003.6 hPa NW 16.1 km/h 25.7 km/h 70 % 0 mm 30 W/m2
16:27 6 °C 0.9 °C 1003.9 hPa NW 19.3 km/h 33.8 km/h 70 % 0 mm 16 W/m2
16:32 5.9 °C 0.8 °C 1003.9 hPa NW 17.7 km/h 30.6 km/h 70 % 0 mm 9 W/m2
16:37 5.9 °C 0.7 °C 1003.9 hPa WNW 16.1 km/h 24.1 km/h 69 % 0 mm 7 W/m2
16:42 5.9 °C 0.7 °C 1003.9 hPa WNW 20.9 km/h 32.2 km/h 69 % 0 mm 5 W/m2
16:47 5.9 °C 0.7 °C 1004.3 hPa WNW 17.7 km/h 35.4 km/h 69 % 0 mm 5 W/m2
16:53 5.8 °C 0.6 °C 1004.3 hPa NW 17.7 km/h 37 km/h 69 % 0 mm 0 W/m2
16:58 5.8 °C 0.6 °C 1004.3 hPa NW 19.3 km/h 33.8 km/h 69 % 0 mm 0 W/m2
17:03 5.8 °C 0.6 °C 1004.3 hPa NW 20.9 km/h 33.8 km/h 69 % 0 mm 0 W/m2
17:08 5.7 °C 0.4 °C 1004.6 hPa NW 16.1 km/h 32.2 km/h 69 % 0 mm 0 W/m2
17:13 5.7 °C 0.7 °C 1004.6 hPa WNW 16.1 km/h 25.7 km/h 70 % 0 mm 0 W/m2
17:18 5.7 °C 0.4 °C 1004.6 hPa NW 20.9 km/h 33.8 km/h 69 % 0 mm 0 W/m2
17:23 5.6 °C 0.6 °C 1004.6 hPa WNW 14.5 km/h 22.5 km/h 70 % 0 mm 0 W/m2
17:28 5.6 °C 0.6 °C 1004.6 hPa WNW 16.1 km/h 24.1 km/h 70 % 0 mm 0 W/m2
17:33 5.5 °C 0.4 °C 1004.6 hPa WNW 16.1 km/h 30.6 km/h 70 % 0 mm 0 W/m2
17:38 5.4 °C 0.4 °C 1004.6 hPa WNW 17.7 km/h 30.6 km/h 70 % 0 mm 0 W/m2
17:43 5.4 °C 0.4 °C 1005 hPa WNW 14.5 km/h 24.1 km/h 70 % 0 mm 0 W/m2
17:48 5.4 °C 0.4 °C 1005 hPa WNW 9.7 km/h 17.7 km/h 70 % 0 mm 0 W/m2
17:53 5.3 °C 0.3 °C 1005 hPa WNW 12.9 km/h 22.5 km/h 70 % 0 mm 0 W/m2
17:58 5.2 °C 0.2 °C 1005.3 hPa WNW 12.9 km/h 22.5 km/h 70 % 0 mm 0 W/m2
18:03 5.2 °C 0.2 °C 1005.3 hPa WNW 19.3 km/h 32.2 km/h 70 % 0 mm 0 W/m2
18:08 5.2 °C 0.4 °C 1005.3 hPa WNW 17.7 km/h 30.6 km/h 71 % 0 mm 0 W/m2
18:13 5.1 °C 0.3 °C 1005.3 hPa WNW 9.7 km/h 16.1 km/h 71 % 0 mm 0 W/m2
18:18 5.1 °C 0.3 °C 1005.3 hPa WNW 16.1 km/h 25.7 km/h 71 % 0 mm 0 W/m2
18:23 5.1 °C 0.1 °C 1005.3 hPa NW 16.1 km/h 33.8 km/h 70 % 0 mm 0 W/m2
18:28 5 °C 0 °C 1005.3 hPa WNW 17.7 km/h 24.1 km/h 70 % 0 mm 0 W/m2
18:33 4.9 °C 0.1 °C 1005.6 hPa WNW 17.7 km/h 30.6 km/h 71 % 0 mm 0 W/m2
18:38 4.9 °C 0.1 °C 1005.6 hPa NW 17.7 km/h 30.6 km/h 71 % 0 mm 0 W/m2
18:43 4.9 °C 0.1 °C 1005.6 hPa WNW 17.7 km/h 33.8 km/h 71 % 0 mm 0 W/m2
18:48 4.9 °C 0.1 °C 1005.6 hPa NW 20.9 km/h 32.2 km/h 71 % 0 mm 0 W/m2
18:53 5 °C 0.2 °C 1005.6 hPa NW 19.3 km/h 29 km/h 71 % 0 mm 0 W/m2
18:58 5.1 °C 0.3 °C 1005.6 hPa NW 22.5 km/h 35.4 km/h 71 % 0 mm 0 W/m2
19:03 5.1 °C 0.3 °C 1005.6 hPa NW 19.3 km/h 30.6 km/h 71 % 0 mm 0 W/m2
19:08 5.1 °C 0.3 °C 1005.6 hPa WNW 19.3 km/h 33.8 km/h 71 % 0 mm 0 W/m2
19:13 5 °C 0.2 °C 1005.6 hPa WNW 19.3 km/h 32.2 km/h 71 % 0 mm 0 W/m2
19:18 4.9 °C 0.1 °C 1006 hPa WNW 12.9 km/h 19.3 km/h 71 % 0 mm 0 W/m2
19:23 4.8 °C 0 °C 1005.6 hPa NW 19.3 km/h 38.6 km/h 71 % 0 mm 0 W/m2
19:28 4.8 °C 0 °C 1005.6 hPa NW 16.1 km/h 30.6 km/h 71 % 0 mm 0 W/m2
19:33 4.7 °C -0.1 °C 1005.6 hPa NW 14.5 km/h 30.6 km/h 71 % 0 mm 0 W/m2
19:38 4.6 °C -0.2 °C 1006 hPa WNW 12.9 km/h 20.9 km/h 71 % 0 mm 0 W/m2
19:44 4.6 °C 0 °C 1006 hPa WNW 12.9 km/h 22.5 km/h 72 % 0 mm 0 W/m2
19:49 4.5 °C -0.1 °C 1006 hPa WNW 11.3 km/h 20.9 km/h 72 % 0 mm 0 W/m2
19:54 4.4 °C -0.2 °C 1006 hPa WNW 14.5 km/h 24.1 km/h 72 % 0 mm 0 W/m2
19:59 4.4 °C -0.2 °C 1006 hPa WNW 14.5 km/h 29 km/h 72 % 0 mm 0 W/m2
20:04 4.4 °C -0.2 °C 1006 hPa WNW 16.1 km/h 25.7 km/h 72 % 0 mm 0 W/m2
20:09 4.3 °C -0.3 °C 1006 hPa NW 14.5 km/h 24.1 km/h 72 % 0 mm 0 W/m2
20:14 4.3 °C -0.1 °C 1006 hPa WNW 12.9 km/h 22.5 km/h 73 % 0 mm 0 W/m2
20:19 4.3 °C -0.1 °C 1006 hPa WNW 17.7 km/h 25.7 km/h 73 % 0 mm 0 W/m2
20:24 4.2 °C -0.2 °C 1006 hPa WNW 14.5 km/h 24.1 km/h 73 % 0 mm 0 W/m2
20:29 4.2 °C -0.2 °C 1006 hPa WNW 17.7 km/h 32.2 km/h 73 % 0 mm 0 W/m2
20:34 4.1 °C -0.1 °C 1006.3 hPa WNW 14.5 km/h 22.5 km/h 74 % 0 mm 0 W/m2
20:39 4.1 °C -0.1 °C 1006.3 hPa WNW 16.1 km/h 32.2 km/h 74 % 0 mm 0 W/m2
20:44 4.1 °C -0.1 °C 1006.3 hPa NW 17.7 km/h 33.8 km/h 74 % 0 mm 0 W/m2
20:49 4.1 °C -0.1 °C 1006.3 hPa WNW 12.9 km/h 29 km/h 74 % 0 mm 0 W/m2
20:54 4.1 °C -0.1 °C 1006.3 hPa WNW 17.7 km/h 30.6 km/h 74 % 0 mm 0 W/m2
20:59 4.1 °C -0.1 °C 1006.7 hPa NW 14.5 km/h 24.1 km/h 74 % 0 mm 0 W/m2
21:04 4.1 °C -0.1 °C 1006.7 hPa WNW 16.1 km/h 30.6 km/h 74 % 0 mm 0 W/m2
21:09 4.1 °C -0.1 °C 1006.7 hPa WNW 17.7 km/h 30.6 km/h 74 % 0 mm 0 W/m2
21:14 4.2 °C 0 °C 1006.7 hPa WNW 14.5 km/h 24.1 km/h 74 % 0 mm 0 W/m2
21:19 4.1 °C -0.1 °C 1006.7 hPa WNW 14.5 km/h 24.1 km/h 74 % 0 mm 0 W/m2
21:24 4.1 °C -0.1 °C 1006.7 hPa WNW 17.7 km/h 30.6 km/h 74 % 0 mm 0 W/m2
21:29 4.1 °C -0.1 °C 1006.7 hPa WNW 12.9 km/h 20.9 km/h 74 % 0 mm 0 W/m2
21:34 4 °C -0.2 °C 1006.7 hPa WNW 14.5 km/h 22.5 km/h 74 % 0 mm 0 W/m2
21:39 4 °C -0.2 °C 1006.3 hPa WNW 16.1 km/h 30.6 km/h 74 % 0 mm 0 W/m2
21:44 3.9 °C -0.3 °C 1006.7 hPa WNW 14.5 km/h 24.1 km/h 74 % 0 mm 0 W/m2
21:49 4 °C -0.1 °C 1006.3 hPa WNW 17.7 km/h 32.2 km/h 75 % 0 mm 0 W/m2
21:54 3.9 °C -0.1 °C 1006.3 hPa WNW 16.1 km/h 32.2 km/h 75 % 0 mm 0 W/m2
21:59 3.9 °C -0.1 °C 1006.7 hPa WNW 17.7 km/h 25.7 km/h 75 % 0 mm 0 W/m2
22:04 3.9 °C -0.1 °C 1006.7 hPa WNW 17.7 km/h 35.4 km/h 75 % 0 mm 0 W/m2
22:09 3.9 °C -0.1 °C 1006.7 hPa WNW 16.1 km/h 29 km/h 75 % 0 mm 0 W/m2
22:14 3.9 °C -0.1 °C 1006.7 hPa WNW 20.9 km/h 33.8 km/h 75 % 0 mm 0 W/m2
22:19 4 °C -0.1 °C 1006.7 hPa WNW 19.3 km/h 30.6 km/h 75 % 0 mm 0 W/m2
22:24 4 °C -0.1 °C 1006.7 hPa WNW 19.3 km/h 30.6 km/h 75 % 0 mm 0 W/m2
22:29 4 °C -0.1 °C 1007 hPa WNW 16.1 km/h 30.6 km/h 75 % 0 mm 0 W/m2
22:34 4 °C -0.1 °C 1007 hPa WNW 16.1 km/h 35.4 km/h 75 % 0 mm 0 W/m2
22:39 3.9 °C -0.1 °C 1007 hPa WNW 19.3 km/h 32.2 km/h 75 % 0 mm 0 W/m2
22:44 3.9 °C 0.1 °C 1007 hPa WNW 14.5 km/h 22.5 km/h 76 % 0 mm 0 W/m2
22:49 3.9 °C 0.1 °C 1007 hPa WNW 16.1 km/h 29 km/h 76 % 0 mm 0 W/m2
22:54 3.8 °C 0.1 °C 1007 hPa WNW 16.1 km/h 30.6 km/h 77 % 0 mm 0 W/m2
22:59 3.8 °C 0.1 °C 1007.3 hPa WNW 16.1 km/h 25.7 km/h 77 % 0 mm 0 W/m2
23:04 3.8 °C 0.3 °C 1007.3 hPa WNW 14.5 km/h 22.5 km/h 78 % 0 mm 0 W/m2
23:09 3.8 °C 0.3 °C 1007.3 hPa WNW 16.1 km/h 29 km/h 78 % 0 mm 0 W/m2
23:14 3.8 °C 0.3 °C 1007 hPa WNW 16.1 km/h 24.1 km/h 78 % 0 mm 0 W/m2
23:19 3.9 °C 0.4 °C 1007.3 hPa WNW 16.1 km/h 24.1 km/h 78 % 0 mm 0 W/m2
23:24 3.9 °C 0.4 °C 1007 hPa WNW 17.7 km/h 32.2 km/h 78 % 0 mm 0 W/m2
23:29 3.9 °C 0.4 °C 1007 hPa WNW 17.7 km/h 29 km/h 78 % 0 mm 0 W/m2
23:35 3.9 °C 0.4 °C 1007 hPa WNW 17.7 km/h 25.7 km/h 78 % 0 mm 0 W/m2
23:40 3.9 °C 0.4 °C 1007.3 hPa WNW 17.7 km/h 25.7 km/h 78 % 0 mm 0 W/m2
23:45 3.9 °C 0.4 °C 1007.3 hPa WNW 17.7 km/h 30.6 km/h 78 % 0 mm 0 W/m2
23:50 3.9 °C 0.4 °C 1007.3 hPa WNW 19.3 km/h 25.7 km/h 78 % 0 mm 0 W/m2
23:55 3.9 °C 0.4 °C 1007.3 hPa WNW 17.7 km/h 32.2 km/h 78 % 0 mm 0 W/m2
Delerius-Weather
Compliments of Weather Underground - 2.25 mb

Data updates at regular intervals.